Aviation Digital Data Service (ADDS)

Output produced by TAFs form (0931 UTC 25 November 2017)
found at http://www.aviationweather.gov/adds/tafs/
 
METAR text: RJTO 250700Z 24009KT 200V300 9999 FEW030 SCT190 BKN/// 13/04 Q1023
Conditions at: RJTO (OSHIMA AIRPORT , JP) observed 0700 UTC 25 November 2017
Temperature: 13.0°C (55°F)
Dewpoint: 4.0°C (39°F) [RH = 54%]
Pressure (altimeter): 30.21 inches Hg (1023.0 mb)
Winds: from the WSW (240 degrees) at 10 MPH (9 knots; 4.7 m/s)
Visibility: 6 or more miles (10+ km)
Ceiling: at least 12,000 feet AGL
Clouds: few clouds at 3000 feet AGL
scattered clouds at 19000 feet AGL
Weather: no significant weather observed at this time